Pagrindinis puslapis
METAR-TAF:

METAR-TAF

Oro uostai :

Sukhothai, Tailandas

platuma: 17-14-16N, ilguma: 099-49-05E, Aukštis: 55 m

Dabartinis oras

Ataskaita buvo paskelbta 45 minutes, ne 01:00 UTC
Vėjas 1 kt nuo kintamojo kryptimis
Temperatūra 21°C
Drėgmė 64%
Slėgis 1007 hPa
Matomumas: 5000 m
rūkana

METAR: VTPO 260100Z VRB01KT 5000 BR NSC 21/14 Q1007 NOSIG

Laikas: 08:45 (01:45 UTC)

Prognozė

Ataskaita buvo paskelbta 2 valandos ir 45 minutes, ne 23:00 UTC
Prognozė galioja nuo 26 metu 00 UTC su 26 metu 24 UTC
Vėjas kt iš Šiaurės
Matomumas: 7000 m

TAF: VTPO 252300Z 2600/2624 00000KT 7000 NSC

Orai ataskaitas ir orų prognozės (METAR, TAF).

turimą stotys yra geltonos ir raudonos taškus žemėlapyje.

Perkelti pele per norėdami pamatyti stoties vardą.

Tada spustelėkite, norėdami matyti oro stebėjimo ir prognozės.

Norėdami pakeisti žemėlapį: spustelėkite ant žalios mygtukų su juodo kryžiaus žemyn,; žalią mygtuką su brūkšneliu, jei norite nutolinti; arba žalių rodyklių gretimoms žemėlapius.


METAR-TAF: